createdAt,value
2018-08-18T00:00:42.999Z,99515.00
2018-08-18T00:02:46.889Z,99509.00
2018-08-18T00:04:51.690Z,99505.00
2018-08-18T00:07:00.613Z,99504.00
2018-08-18T00:09:07.314Z,99504.00
2018-08-18T00:11:13.173Z,99504.00
2018-08-18T00:13:22.301Z,99501.00
2018-08-18T00:15:26.073Z,99500.00
2018-08-18T00:17:30.241Z,99497.00
2018-08-18T00:19:33.966Z,99495.00
2018-08-18T00:21:37.597Z,99496.00
2018-08-18T00:23:49.567Z,99496.00
2018-08-18T00:25:55.947Z,99497.00
2018-08-18T00:28:24.457Z,99505.00
2018-08-18T00:30:30.301Z,99505.00
2018-08-18T00:32:34.546Z,99497.00
2018-08-18T00:34:45.479Z,99492.00
2018-08-18T00:36:49.842Z,99499.00
2018-08-18T00:39:05.942Z,99502.00
2018-08-18T00:41:18.627Z,99514.00
2018-08-18T00:43:23.152Z,99508.00
2018-08-18T00:45:27.208Z,99504.00
2018-08-18T00:47:32.135Z,99512.00
2018-08-18T00:49:35.827Z,99517.00
2018-08-18T00:51:43.361Z,99518.00
2018-08-18T00:53:49.032Z,99512.00
2018-08-18T00:55:55.697Z,99513.00
2018-08-18T00:57:59.642Z,99515.00
2018-08-18T01:00:10.114Z,99518.00
2018-08-18T01:02:17.120Z,99525.00
2018-08-18T01:04:24.282Z,99528.00
2018-08-18T01:06:36.445Z,99536.00
2018-08-18T01:08:40.880Z,99540.00
2018-08-18T01:10:44.488Z,99540.00
2018-08-18T01:12:48.475Z,99537.00
2018-08-18T01:14:53.628Z,99536.00
2018-08-18T01:16:59.627Z,99534.00
2018-08-18T01:19:06.277Z,99538.00
2018-08-18T01:21:13.285Z,99535.00
2018-08-18T01:23:19.516Z,99538.00
2018-08-18T01:25:25.533Z,99533.00
2018-08-18T01:27:29.792Z,99529.00
2018-08-18T01:29:33.605Z,99536.00
2018-08-18T01:31:41.743Z,99539.00
2018-08-18T01:33:47.766Z,99540.00
2018-08-18T01:35:51.678Z,99539.00
2018-08-18T01:37:55.579Z,99535.00
2018-08-18T01:39:59.148Z,99540.00
2018-08-18T01:42:04.401Z,99536.00
2018-08-18T01:44:25.864Z,99555.00
2018-08-18T01:46:30.719Z,99551.00
2018-08-18T01:48:35.335Z,99547.00
2018-08-18T01:50:42.549Z,99552.00
2018-08-18T01:52:46.942Z,99551.00
2018-08-18T01:54:52.813Z,99549.00
2018-08-18T01:57:03.178Z,99548.00
2018-08-18T01:59:07.596Z,99551.00
2018-08-18T02:01:12.952Z,99547.00
2018-08-18T02:03:16.815Z,99548.00
2018-08-18T02:05:20.783Z,99547.00
2018-08-18T02:07:30.324Z,99550.00
2018-08-18T02:09:34.533Z,99551.00
2018-08-18T02:11:40.118Z,99553.00
2018-08-18T02:13:47.209Z,99555.00
2018-08-18T02:15:52.672Z,99557.00
2018-08-18T02:17:57.207Z,99557.00
2018-08-18T02:20:01.735Z,99560.00
2018-08-18T02:22:08.056Z,99557.00
2018-08-18T02:24:12.291Z,99560.00
2018-08-18T02:26:15.853Z,99568.00
2018-08-18T02:28:27.917Z,99563.00
2018-08-18T02:30:31.497Z,99564.00
2018-08-18T02:32:37.860Z,99565.00
2018-08-18T02:34:42.040Z,99569.00
2018-08-18T02:36:46.567Z,99560.00
2018-08-18T02:38:58.320Z,99560.00
2018-08-18T02:41:04.273Z,99570.00
2018-08-18T02:43:19.016Z,99572.00
2018-08-18T02:45:22.929Z,99570.00
2018-08-18T02:47:26.721Z,99565.00
2018-08-18T02:49:34.375Z,99569.00
2018-08-18T02:51:38.088Z,99567.00
2018-08-18T02:53:41.718Z,99570.00
2018-08-18T02:55:45.494Z,99561.00
2018-08-18T02:57:49.500Z,99568.00
2018-08-18T02:59:58.747Z,99567.00
2018-08-18T03:02:07.621Z,99564.00
2018-08-18T03:04:13.514Z,99561.00
2018-08-18T03:06:17.729Z,99562.00
2018-08-18T03:08:21.902Z,99560.00
2018-08-18T03:10:27.086Z,99563.00
2018-08-18T03:12:49.658Z,99567.00
2018-08-18T03:15:09.178Z,99572.00
2018-08-18T03:17:13.818Z,99569.00
2018-08-18T03:19:19.236Z,99565.00
2018-08-18T03:21:33.556Z,99570.00
2018-08-18T03:23:40.731Z,99566.00
2018-08-18T03:25:47.599Z,99578.00
2018-08-18T03:27:58.559Z,99573.00
2018-08-18T03:30:07.437Z,99569.00
2018-08-18T03:32:12.538Z,99567.00
2018-08-18T03:34:18.616Z,99563.00
2018-08-18T03:36:30.924Z,99567.00
2018-08-18T03:38:34.740Z,99568.00
2018-08-18T03:40:41.244Z,99569.00
2018-08-18T03:42:45.269Z,99565.00
2018-08-18T03:44:55.260Z,99570.00
2018-08-18T03:47:03.225Z,99565.00
2018-08-18T03:49:11.254Z,99568.00
2018-08-18T03:51:17.950Z,99573.00
2018-08-18T03:53:21.447Z,99578.00
2018-08-18T03:55:36.637Z,99575.00
2018-08-18T03:57:47.350Z,99573.00
2018-08-18T03:59:51.254Z,99567.00
2018-08-18T04:01:57.734Z,99571.00
2018-08-18T04:04:03.029Z,99571.00
2018-08-18T04:06:09.896Z,99578.00
2018-08-18T04:08:16.413Z,99578.00
2018-08-18T04:10:29.504Z,99580.00
2018-08-18T04:12:46.902Z,99585.00
2018-08-18T04:14:50.488Z,99595.00
2018-08-18T04:16:54.024Z,99593.00
2018-08-18T04:19:01.593Z,99596.00
2018-08-18T04:21:09.707Z,99590.00
2018-08-18T04:23:17.211Z,99592.00
2018-08-18T04:25:23.361Z,99591.00
2018-08-18T04:27:48.653Z,99595.00
2018-08-18T04:29:52.956Z,99586.00
2018-08-18T04:31:58.189Z,99593.00
2018-08-18T04:34:04.257Z,99592.00
2018-08-18T04:36:11.997Z,99598.00
2018-08-18T04:38:18.778Z,99596.00
2018-08-18T04:40:24.718Z,99593.00
2018-08-18T04:42:28.613Z,99597.00
2018-08-18T04:44:32.426Z,99600.00
2018-08-18T04:46:37.318Z,99593.00
2018-08-18T04:48:41.322Z,99605.00
2018-08-18T04:50:45.068Z,99612.00
2018-08-18T04:52:50.618Z,99611.00
2018-08-18T04:54:54.115Z,99609.00
2018-08-18T04:56:57.943Z,99611.00
2018-08-18T04:59:02.377Z,99618.00
2018-08-18T05:01:06.595Z,99617.00
2018-08-18T05:03:11.695Z,99622.00
2018-08-18T05:05:17.030Z,99624.00
2018-08-18T05:07:20.700Z,99627.00
2018-08-18T05:09:24.202Z,99626.00
2018-08-18T05:11:28.772Z,99625.00
2018-08-18T05:13:33.285Z,99621.00
2018-08-18T05:15:37.028Z,99628.00
2018-08-18T05:17:40.971Z,99627.00
2018-08-18T05:19:52.695Z,99623.00
2018-08-18T05:21:59.249Z,99627.00
2018-08-18T05:24:19.551Z,99621.00
2018-08-18T05:26:23.467Z,99624.00
2018-08-18T05:28:27.677Z,99626.00
2018-08-18T05:30:31.800Z,99632.00
2018-08-18T05:32:36.708Z,99629.00
2018-08-18T05:34:40.289Z,99629.00
2018-08-18T05:36:44.611Z,99631.00
2018-08-18T05:38:51.073Z,99630.00
2018-08-18T05:40:58.546Z,99634.00
2018-08-18T05:43:07.101Z,99636.00
2018-08-18T05:45:22.164Z,99631.00
2018-08-18T05:47:26.179Z,99636.00
2018-08-18T05:49:44.804Z,99631.00
2018-08-18T05:51:52.422Z,99631.00
2018-08-18T05:53:59.677Z,99640.00
2018-08-18T05:56:06.928Z,99635.00
2018-08-18T05:58:10.983Z,99631.00
2018-08-18T06:00:18.334Z,99635.00
2018-08-18T06:02:22.266Z,99637.00
2018-08-18T06:04:26.306Z,99632.00
2018-08-18T06:06:29.892Z,99629.00
2018-08-18T06:08:34.345Z,99626.00
2018-08-18T06:10:41.887Z,99625.00
2018-08-18T06:12:46.707Z,99621.00
2018-08-18T06:14:50.657Z,99625.00
2018-08-18T06:16:55.344Z,99629.00
2018-08-18T06:19:04.543Z,99629.00
2018-08-18T06:21:11.279Z,99631.00
2018-08-18T06:23:16.841Z,99636.00
2018-08-18T06:25:20.922Z,99644.00
2018-08-18T06:27:29.173Z,99648.00
2018-08-18T06:29:33.163Z,99650.00
2018-08-18T06:31:52.343Z,99646.00
2018-08-18T06:33:58.579Z,99651.00
2018-08-18T06:36:05.341Z,99653.00
2018-08-18T06:38:10.714Z,99663.00
2018-08-18T06:40:17.486Z,99661.00
2018-08-18T06:42:36.278Z,99653.00
2018-08-18T06:44:42.992Z,99660.00
2018-08-18T06:46:50.041Z,99661.00
2018-08-18T06:49:02.938Z,99661.00
2018-08-18T06:51:10.470Z,99664.00
2018-08-18T06:53:21.913Z,99668.00
2018-08-18T06:55:26.753Z,99673.00
2018-08-18T06:57:42.818Z,99671.00
2018-08-18T06:59:48.223Z,99672.00
2018-08-18T07:01:52.723Z,99672.00
2018-08-18T07:03:58.852Z,99669.00
2018-08-18T07:06:13.079Z,99667.00
2018-08-18T07:08:22.388Z,99670.00
2018-08-18T07:10:36.811Z,99674.00
2018-08-18T07:12:44.445Z,99672.00
2018-08-18T07:14:54.722Z,99668.00
2018-08-18T07:17:10.766Z,99673.00
2018-08-18T07:19:23.825Z,99676.00
2018-08-18T07:21:29.142Z,99676.00
2018-08-18T07:23:34.420Z,99671.00
2018-08-18T07:25:49.211Z,99677.00
2018-08-18T07:27:59.714Z,99674.00
2018-08-18T07:30:11.387Z,99679.00
2018-08-18T07:32:25.616Z,99683.00
2018-08-18T07:34:29.487Z,99686.00
2018-08-18T07:36:39.146Z,99683.00
2018-08-18T07:38:51.004Z,99685.00
2018-08-18T07:40:55.556Z,99688.00
2018-08-18T07:43:04.731Z,99692.00
2018-08-18T07:45:13.465Z,99692.00
2018-08-18T07:47:24.714Z,99694.00
2018-08-18T07:49:31.119Z,99702.00
2018-08-18T07:51:35.258Z,99698.00
2018-08-18T07:53:55.473Z,99701.00
2018-08-18T07:56:00.071Z,99699.00
2018-08-18T07:58:11.686Z,99699.00
2018-08-18T08:00:23.390Z,99708.00
2018-08-18T08:02:31.218Z,99705.00
2018-08-18T08:04:40.086Z,99704.00
2018-08-18T08:06:46.598Z,99706.00
2018-08-18T08:09:07.288Z,99711.00
2018-08-18T08:11:14.852Z,99714.00
2018-08-18T08:13:25.478Z,99714.00
2018-08-18T08:15:35.599Z,99715.00
2018-08-18T08:17:46.804Z,99713.00
2018-08-18T08:20:00.082Z,99712.00
2018-08-18T08:22:13.932Z,99721.00
2018-08-18T08:24:25.230Z,99719.00
2018-08-18T08:26:40.474Z,99716.00
2018-08-18T08:28:47.890Z,99709.00
2018-08-18T08:30:57.875Z,99718.00
2018-08-18T08:33:09.566Z,99721.00
2018-08-18T08:35:17.424Z,99721.00
2018-08-18T08:37:24.480Z,99729.00
2018-08-18T08:39:30.210Z,99723.00
2018-08-18T08:41:35.460Z,99719.00
2018-08-18T08:43:41.626Z,99721.00
2018-08-18T08:45:49.449Z,99724.00
2018-08-18T08:47:58.925Z,99730.00
2018-08-18T08:50:05.256Z,99733.00
2018-08-18T08:52:13.941Z,99732.00
2018-08-18T08:54:22.969Z,99731.00
2018-08-18T08:56:34.080Z,99723.00
2018-08-18T08:58:42.650Z,99726.00
2018-08-18T09:00:49.832Z,99730.00
2018-08-18T09:02:59.850Z,99726.00
2018-08-18T09:05:15.265Z,99723.00
2018-08-18T09:07:23.505Z,99724.00
2018-08-18T09:09:30.710Z,99724.00
2018-08-18T09:11:36.449Z,99720.00
2018-08-18T09:14:11.765Z,99722.00
2018-08-18T09:16:18.058Z,99724.00
2018-08-18T09:18:27.763Z,99721.00
2018-08-18T09:20:36.469Z,99719.00
2018-08-18T09:22:52.268Z,99720.00
2018-08-18T09:25:10.722Z,99715.00
2018-08-18T09:27:15.796Z,99711.00
2018-08-18T09:29:23.296Z,99708.00
2018-08-18T09:31:27.991Z,99708.00
2018-08-18T09:33:32.326Z,99703.00
2018-08-18T09:35:54.579Z,99711.00
2018-08-18T09:38:04.188Z,99708.00
2018-08-18T09:40:10.290Z,99709.00
2018-08-18T09:42:17.854Z,99708.00
2018-08-18T09:44:26.679Z,99709.00
2018-08-18T09:46:31.905Z,99710.00
2018-08-18T09:48:37.437Z,99711.00
2018-08-18T09:50:42.525Z,99712.00
2018-08-18T09:52:47.800Z,99713.00
2018-08-18T09:54:52.591Z,99704.00
2018-08-18T09:56:56.749Z,99712.00
2018-08-18T09:59:05.610Z,99705.00
2018-08-18T10:01:16.216Z,99706.00
2018-08-18T10:03:21.314Z,99709.00
2018-08-18T10:05:26.577Z,99711.00
2018-08-18T10:07:31.190Z,99707.00
2018-08-18T10:09:35.127Z,99707.00
2018-08-18T10:11:41.753Z,99709.00
2018-08-18T10:13:45.708Z,99703.00
2018-08-18T10:15:49.356Z,99702.00
2018-08-18T10:17:53.890Z,99700.00
2018-08-18T10:19:57.669Z,99701.00
2018-08-18T10:22:10.479Z,99701.00
2018-08-18T10:24:20.006Z,99706.00
2018-08-18T10:26:24.910Z,99710.00
2018-08-18T10:28:28.652Z,99707.00
2018-08-18T10:30:32.527Z,99708.00
2018-08-18T10:32:40.248Z,99702.00
2018-08-18T10:34:43.874Z,99704.00
2018-08-18T10:36:55.970Z,99698.00
2018-08-18T10:38:59.964Z,99701.00
2018-08-18T10:41:05.340Z,99698.00
2018-08-18T10:43:14.309Z,99698.00
2018-08-18T10:45:21.753Z,99696.00
2018-08-18T10:47:27.795Z,99690.00
2018-08-18T10:49:47.705Z,99689.00
2018-08-18T10:52:03.589Z,99687.00
2018-08-18T10:54:07.643Z,99689.00
2018-08-18T10:56:15.507Z,99689.00
2018-08-18T10:58:30.774Z,99691.00
2018-08-18T11:00:35.343Z,99691.00
2018-08-18T11:02:44.106Z,99691.00
2018-08-18T11:04:48.433Z,99689.00
2018-08-18T11:06:52.289Z,99687.00
2018-08-18T11:08:56.022Z,99682.00
2018-08-18T11:10:59.829Z,99683.00
2018-08-18T11:13:05.820Z,99689.00
2018-08-18T11:15:13.038Z,99690.00
2018-08-18T11:17:18.489Z,99686.00
2018-08-18T11:19:22.595Z,99681.00
2018-08-18T11:21:33.957Z,99693.00
2018-08-18T11:23:37.781Z,99686.00
2018-08-18T11:25:51.839Z,99688.00
2018-08-18T11:27:57.288Z,99682.00
2018-08-18T11:30:06.467Z,99689.00
2018-08-18T11:32:10.351Z,99691.00
2018-08-18T11:34:16.994Z,99691.00
2018-08-18T11:36:20.615Z,99690.00
2018-08-18T11:38:25.167Z,99688.00
2018-08-18T11:40:29.508Z,99693.00
2018-08-18T11:42:33.498Z,99691.00
2018-08-18T11:44:38.956Z,99689.00
2018-08-18T11:46:50.644Z,99689.00
2018-08-18T11:48:58.721Z,99686.00
2018-08-18T11:51:08.774Z,99689.00
2018-08-18T11:53:14.537Z,99685.00
2018-08-18T11:55:20.585Z,99684.00
2018-08-18T11:57:24.758Z,99682.00
2018-08-18T11:59:29.760Z,99678.00
2018-08-18T12:01:37.318Z,99675.00
2018-08-18T12:03:41.078Z,99679.00
2018-08-18T12:05:50.655Z,99678.00
2018-08-18T12:07:59.303Z,99671.00
2018-08-18T12:10:06.957Z,99674.00
2018-08-18T12:12:11.796Z,99671.00
2018-08-18T12:14:17.005Z,99679.00
2018-08-18T12:16:22.116Z,99662.00
2018-08-18T12:18:28.565Z,99675.00
2018-08-18T12:20:32.439Z,99677.00
2018-08-18T12:22:36.493Z,99671.00
2018-08-18T12:24:43.554Z,99672.00
2018-08-18T12:27:01.522Z,99667.00
2018-08-18T12:29:12.753Z,99669.00
2018-08-18T12:31:20.631Z,99666.00
2018-08-18T12:33:24.883Z,99660.00
2018-08-18T12:35:33.706Z,99657.00
2018-08-18T12:37:41.316Z,99655.00
2018-08-18T12:39:45.610Z,99626.00
2018-08-18T12:41:50.427Z,99621.00
2018-08-18T12:44:01.893Z,99635.00
2018-08-18T12:46:17.445Z,99645.00
2018-08-18T12:48:23.498Z,99635.00
2018-08-18T12:50:31.751Z,99626.00
2018-08-18T12:52:44.840Z,99631.00
2018-08-18T12:54:49.210Z,99625.00
2018-08-18T12:56:55.174Z,99630.00
2018-08-18T12:58:59.664Z,99623.00
2018-08-18T13:01:05.787Z,99631.00
2018-08-18T13:03:12.707Z,99591.00
2018-08-18T13:05:31.002Z,99620.00
2018-08-18T13:07:39.116Z,99626.00
2018-08-18T13:09:47.161Z,99617.00
2018-08-18T13:11:59.862Z,99615.00
2018-08-18T13:14:09.608Z,99593.00
2018-08-18T13:16:17.679Z,99613.00
2018-08-18T13:18:23.687Z,99617.00
2018-08-18T13:20:27.881Z,99610.00
2018-08-18T13:22:32.971Z,99602.00
2018-08-18T13:24:37.079Z,99597.00
2018-08-18T13:26:41.659Z,99589.00
2018-08-18T13:28:51.551Z,99578.00
2018-08-18T13:30:56.658Z,99579.00
2018-08-18T13:33:01.109Z,99578.00
2018-08-18T13:35:06.377Z,99570.00
2018-08-18T13:37:15.369Z,99563.00
2018-08-18T13:39:29.875Z,99564.00
2018-08-18T13:41:35.873Z,99555.00
2018-08-18T13:43:46.640Z,99567.00
2018-08-18T13:45:50.609Z,99556.00
2018-08-18T13:48:00.462Z,99559.00
2018-08-18T13:50:09.617Z,99552.00
2018-08-18T13:52:18.928Z,99551.00
2018-08-18T13:54:25.408Z,99551.00
2018-08-18T13:56:32.549Z,99552.00
2018-08-18T13:58:39.370Z,99554.00
2018-08-18T14:00:44.520Z,99552.00
2018-08-18T14:02:48.414Z,99552.00
2018-08-18T14:04:54.152Z,99542.00
2018-08-18T14:06:59.227Z,99544.00
2018-08-18T14:09:03.757Z,99539.00
2018-08-18T14:11:09.783Z,99540.00
2018-08-18T14:13:18.744Z,99541.00
2018-08-18T14:15:24.560Z,99543.00
2018-08-18T14:17:28.899Z,99543.00
2018-08-18T14:19:32.850Z,99539.00
2018-08-18T14:21:38.969Z,99531.00
2018-08-18T14:24:48.232Z,99534.00
2018-08-18T14:27:02.289Z,99531.00
2018-08-18T14:29:09.478Z,99529.00
2018-08-18T14:31:14.074Z,99528.00
2018-08-18T14:33:20.598Z,99526.00
2018-08-18T14:35:24.961Z,99528.00
2018-08-18T14:37:29.181Z,99530.00
2018-08-18T14:39:38.381Z,99530.00
2018-08-18T14:41:43.096Z,99526.00
2018-08-18T14:43:47.105Z,99523.00
2018-08-18T14:45:55.303Z,99518.00
2018-08-18T14:48:04.304Z,99521.00
2018-08-18T14:50:22.558Z,99521.00
2018-08-18T14:52:26.921Z,99514.00
2018-08-18T14:54:32.463Z,99516.00
2018-08-18T14:56:36.574Z,99514.00
2018-08-18T14:58:43.783Z,99517.00
2018-08-18T15:00:48.404Z,99513.00
2018-08-18T15:03:24.339Z,99511.00
2018-08-18T15:05:28.321Z,99512.00
2018-08-18T15:07:34.291Z,99512.00
2018-08-18T15:09:46.036Z,99515.00
2018-08-18T15:11:50.012Z,99512.00
2018-08-18T15:13:54.471Z,99509.00
2018-08-18T15:16:02.572Z,99498.00
2018-08-18T15:18:12.272Z,99500.00
2018-08-18T15:20:17.372Z,99504.00
2018-08-18T15:22:21.421Z,99499.00
2018-08-18T15:24:26.774Z,99497.00
2018-08-18T15:26:30.610Z,99493.00
2018-08-18T15:28:34.618Z,99497.00
2018-08-18T15:30:39.928Z,99483.00
2018-08-18T15:32:44.401Z,99478.00
2018-08-18T15:34:48.302Z,99485.00
2018-08-18T15:36:52.348Z,99491.00
2018-08-18T15:38:56.095Z,99484.00
2018-08-18T15:41:00.440Z,99480.00
2018-08-18T15:43:07.597Z,99481.00
2018-08-18T15:45:16.852Z,99479.00
2018-08-18T15:47:21.273Z,99473.00
2018-08-18T15:49:25.582Z,99471.00
2018-08-18T15:51:38.579Z,99470.00
2018-08-18T15:53:54.531Z,99471.00
2018-08-18T15:56:01.578Z,99467.00
2018-08-18T15:58:07.387Z,99469.00
2018-08-18T16:00:26.507Z,99476.00
2018-08-18T16:02:30.601Z,99480.00
2018-08-18T16:04:34.515Z,99479.00
2018-08-18T16:06:38.201Z,99479.00
2018-08-18T16:08:42.470Z,99475.00
2018-08-18T16:10:49.090Z,99471.00
2018-08-18T16:12:52.834Z,99471.00
2018-08-18T16:14:57.185Z,99469.00
2018-08-18T16:17:01.824Z,99470.00
2018-08-18T16:19:15.025Z,99468.00
2018-08-18T16:21:23.695Z,99465.00
2018-08-18T16:23:27.585Z,99459.00
2018-08-18T16:25:37.957Z,99460.00
2018-08-18T16:27:42.347Z,99460.00
2018-08-18T16:29:46.518Z,99458.00
2018-08-18T16:31:50.224Z,99459.00
2018-08-18T16:33:55.020Z,99462.00
2018-08-18T16:35:59.242Z,99460.00
2018-08-18T16:38:03.819Z,99460.00
2018-08-18T16:40:09.249Z,99462.00
2018-08-18T16:42:16.648Z,99460.00
2018-08-18T16:44:22.164Z,99464.00
2018-08-18T16:46:32.209Z,99461.00
2018-08-18T16:48:36.420Z,99463.00
2018-08-18T16:50:41.585Z,99462.00
2018-08-18T16:52:45.787Z,99463.00
2018-08-18T16:54:49.698Z,99462.00
2018-08-18T16:56:53.493Z,99465.00
2018-08-18T16:58:59.998Z,99465.00
2018-08-18T17:01:04.370Z,99466.00
2018-08-18T17:03:08.181Z,99468.00
2018-08-18T17:05:15.320Z,99466.00
2018-08-18T17:07:28.432Z,99465.00
2018-08-18T17:09:43.017Z,99469.00
2018-08-18T17:11:47.460Z,99468.00
2018-08-18T17:13:54.354Z,99465.00
2018-08-18T17:16:01.795Z,99468.00
2018-08-18T17:18:07.314Z,99466.00
2018-08-18T17:20:12.814Z,99470.00
2018-08-18T17:22:21.936Z,99470.00
2018-08-18T17:24:28.637Z,99470.00
2018-08-18T17:26:36.273Z,99472.00
2018-08-18T17:28:49.353Z,99471.00
2018-08-18T17:31:03.292Z,99470.00
2018-08-18T17:33:30.498Z,99474.00
2018-08-18T17:38:06.088Z,99481.00
2018-08-18T17:40:11.923Z,99484.00
2018-08-18T17:42:17.338Z,99491.00
2018-08-18T17:44:21.540Z,99494.00
2018-08-18T17:46:25.501Z,99494.00
2018-08-18T17:48:30.500Z,99496.00
2018-08-18T17:50:35.427Z,99497.00
2018-08-18T17:52:39.411Z,99492.00
2018-08-18T17:54:44.687Z,99495.00
2018-08-18T17:56:49.705Z,99498.00
2018-08-18T17:59:05.314Z,99500.00
2018-08-18T18:01:15.059Z,99505.00
2018-08-18T18:03:24.960Z,99499.00
2018-08-18T18:05:32.701Z,99506.00
2018-08-18T18:07:36.653Z,99511.00
2018-08-18T18:09:42.036Z,99515.00
2018-08-18T18:11:50.440Z,99514.00
2018-08-18T18:13:57.461Z,99525.00
2018-08-18T18:16:12.309Z,99519.00
2018-08-18T18:18:22.467Z,99520.00
2018-08-18T18:20:30.906Z,99523.00
2018-08-18T18:22:40.355Z,99523.00
2018-08-18T18:24:44.447Z,99524.00
2018-08-18T18:26:50.890Z,99522.00
2018-08-18T18:28:56.535Z,99524.00
2018-08-18T18:31:03.247Z,99524.00
2018-08-18T18:33:12.902Z,99529.00
2018-08-18T18:35:21.515Z,99533.00
2018-08-18T18:37:25.783Z,99538.00
2018-08-18T18:39:33.531Z,99538.00
2018-08-18T18:41:38.874Z,99540.00
2018-08-18T18:43:50.213Z,99542.00
2018-08-18T18:45:54.341Z,99542.00
2018-08-18T18:47:59.873Z,99548.00
2018-08-18T18:50:08.533Z,99558.00
2018-08-18T18:52:16.791Z,99553.00
2018-08-18T18:54:24.178Z,99554.00
2018-08-18T18:56:28.201Z,99554.00
2018-08-18T18:58:32.188Z,99560.00
2018-08-18T19:00:38.111Z,99567.00
2018-08-18T19:02:43.884Z,99566.00
2018-08-18T19:04:48.035Z,99568.00
2018-08-18T19:07:00.431Z,99566.00
2018-08-18T19:09:06.773Z,99564.00
2018-08-18T19:11:13.279Z,99570.00
2018-08-18T19:13:22.264Z,99573.00
2018-08-18T19:15:29.004Z,99575.00
2018-08-18T19:17:32.910Z,99568.00
2018-08-18T19:19:39.150Z,99568.00
2018-08-18T19:21:45.485Z,99565.00
2018-08-18T19:23:50.188Z,99572.00
2018-08-18T19:25:54.961Z,99571.00
2018-08-18T19:28:00.016Z,99570.00
2018-08-18T19:30:04.756Z,99570.00
2018-08-18T19:32:12.072Z,99570.00
2018-08-18T19:34:19.347Z,99575.00
2018-08-18T19:36:25.756Z,99570.00
2018-08-18T19:38:30.685Z,99574.00
2018-08-18T19:40:38.638Z,99576.00
2018-08-18T19:42:46.871Z,99580.00
2018-08-18T19:44:54.187Z,99583.00
2018-08-18T19:47:00.351Z,99583.00
2018-08-18T19:49:06.779Z,99582.00
2018-08-18T19:51:13.475Z,99580.00
2018-08-18T19:53:22.904Z,99581.00
2018-08-18T19:55:29.218Z,99591.00
2018-08-18T19:57:37.845Z,99588.00
2018-08-18T19:59:52.155Z,99589.00
2018-08-18T20:01:57.152Z,99586.00
2018-08-18T20:04:13.686Z,99592.00
2018-08-18T20:06:24.717Z,99592.00
2018-08-18T20:08:33.072Z,99593.00
2018-08-18T20:10:46.212Z,99596.00
2018-08-18T20:12:54.299Z,99597.00
2018-08-18T20:15:06.132Z,99595.00
2018-08-18T20:17:13.018Z,99602.00
2018-08-18T20:19:29.737Z,99613.00
2018-08-18T20:21:35.952Z,99611.00
2018-08-18T20:23:44.338Z,99617.00
2018-08-18T20:25:50.521Z,99616.00
2018-08-18T20:28:00.088Z,99613.00
2018-08-18T20:30:07.540Z,99614.00
2018-08-18T20:32:13.071Z,99616.00
2018-08-18T20:34:19.343Z,99617.00
2018-08-18T20:36:23.684Z,99624.00
2018-08-18T20:38:33.865Z,99632.00
2018-08-18T20:40:39.066Z,99635.00
2018-08-18T20:42:44.720Z,99638.00
2018-08-18T20:47:04.828Z,99638.00
2018-08-18T20:49:11.727Z,99634.00
2018-08-18T20:51:21.032Z,99639.00
2018-08-18T20:53:26.764Z,99636.00
2018-08-18T20:55:31.191Z,99646.00
2018-08-18T20:57:36.408Z,99652.00
2018-08-18T20:59:41.952Z,99659.00
2018-08-18T21:01:46.256Z,99654.00
2018-08-18T21:03:51.400Z,99657.00
2018-08-18T21:06:00.485Z,99659.00
2018-08-18T21:08:15.118Z,99659.00
2018-08-18T21:10:19.211Z,99662.00
2018-08-18T21:12:31.240Z,99663.00
2018-08-18T21:14:35.589Z,99660.00
2018-08-18T21:16:39.841Z,99661.00
2018-08-18T21:18:45.178Z,99658.00
2018-08-18T21:20:50.292Z,99658.00
2018-08-18T21:22:54.542Z,99663.00
2018-08-18T21:25:01.487Z,99669.00
2018-08-18T21:27:11.683Z,99669.00
2018-08-18T21:29:16.300Z,99673.00
2018-08-18T21:31:26.019Z,99672.00
2018-08-18T21:33:29.820Z,99672.00
2018-08-18T21:35:35.596Z,99672.00
2018-08-18T21:37:41.056Z,99669.00
2018-08-18T21:39:45.526Z,99667.00
2018-08-18T21:41:50.012Z,99667.00
2018-08-18T21:43:53.797Z,99665.00
2018-08-18T21:45:59.836Z,99671.00
2018-08-18T21:48:09.722Z,99672.00
2018-08-18T21:50:17.407Z,99674.00
2018-08-18T21:52:24.665Z,99674.00
2018-08-18T21:54:29.310Z,99673.00
2018-08-18T21:56:37.009Z,99673.00
2018-08-18T21:58:41.871Z,99667.00
2018-08-18T22:00:51.164Z,99672.00
2018-08-18T22:02:57.201Z,99671.00
2018-08-18T22:05:02.128Z,99674.00
2018-08-18T22:07:08.756Z,99672.00
2018-08-18T22:09:22.852Z,99672.00
2018-08-18T22:11:28.248Z,99666.00
2018-08-18T22:13:42.399Z,99663.00
2018-08-18T22:15:48.699Z,99659.00
2018-08-18T22:17:54.783Z,99661.00
2018-08-18T22:20:02.039Z,99661.00
2018-08-18T22:22:07.707Z,99663.00
2018-08-18T22:24:18.722Z,99668.00
2018-08-18T22:26:27.615Z,99662.00
2018-08-18T22:28:31.814Z,99657.00
2018-08-18T22:30:36.547Z,99668.00
2018-08-18T22:32:44.669Z,99672.00
2018-08-18T22:34:49.972Z,99675.00
2018-08-18T22:37:10.721Z,99678.00
2018-08-18T22:39:24.233Z,99673.00
2018-08-18T22:41:32.683Z,99673.00
2018-08-18T22:43:37.045Z,99669.00
2018-08-18T22:45:42.081Z,99666.00
2018-08-18T22:47:46.475Z,99661.00
2018-08-18T22:49:52.764Z,99668.00
2018-08-18T22:51:57.438Z,99670.00
2018-08-18T22:54:02.306Z,99668.00
2018-08-18T22:56:06.852Z,99666.00
2018-08-18T22:58:12.508Z,99671.00
2018-08-18T23:00:19.161Z,99671.00
2018-08-18T23:02:27.893Z,99675.00
2018-08-18T23:04:38.132Z,99671.00
2018-08-18T23:06:42.866Z,99667.00
2018-08-18T23:08:59.036Z,99666.00
2018-08-18T23:11:04.334Z,99668.00
2018-08-18T23:13:15.475Z,99671.00
2018-08-18T23:15:36.122Z,99671.00
2018-08-18T23:17:44.837Z,99668.00
2018-08-18T23:19:50.482Z,99671.00
2018-08-18T23:21:57.532Z,99663.00
2018-08-18T23:24:19.662Z,99673.00
2018-08-18T23:26:34.967Z,99672.00
2018-08-18T23:28:40.511Z,99676.00
2018-08-18T23:30:45.892Z,99676.00
2018-08-18T23:32:54.966Z,99679.00
2018-08-18T23:35:08.391Z,99682.00
2018-08-18T23:37:26.914Z,99681.00
2018-08-18T23:39:37.567Z,99678.00
2018-08-18T23:41:50.853Z,99679.00
2018-08-18T23:44:00.395Z,99685.00
2018-08-18T23:46:09.454Z,99685.00
2018-08-18T23:48:15.887Z,99687.00
2018-08-18T23:50:21.057Z,99684.00
2018-08-18T23:52:25.532Z,99688.00
2018-08-18T23:54:33.027Z,99685.00
2018-08-18T23:56:38.626Z,99684.00
2018-08-18T23:58:43.500Z,99678.00
